LSGP weather

La Côte Airport
La Côte, Canton of Vaud, Switzerland

Public forecast

Using degrees Celsius for public forecast. Weather courtesy of forecast.io.

METAR (pilot weather report)

Closest report is Geneva Cointrin International Airport, 11.8 nm (21.9 km) SSW. Retrieved 2019/07/16 16:20 UTC (0 seconds ago):

LSGG 161620Z VRB03KT 9999 FEW060 SCT300 28/07 Q1015 NOSIG

TAF (pilot weather forecast)

Closest forecast is Geneva Cointrin International Airport, 11.8 nm (21.9 km) SSW. Retrieved 2019/07/16 15:40 UTC (29 minutes ago):

TAF LSGG 161425Z 1615/1721 04008KT 9999 FEW060 TX28/1615Z TN13/1704Z TX29/1715Z BECMG 1617/1619 VRB03KT CAVOK BECMG 1708/1710 04008KT